Consulta los datos en tiempo real de la estación meteorológica de Montseny - Vallcàrquera
| Hora UTC | 13:30 |
|---|---|
| Temperatura | 35.0 ºC |
| Humedad | 26.2 % |
| Pluja | 0.0 mm |
| Velocidad viento | 4.5 km/h |
| Dirección viento | SE |
| Radiación solar | 708.8 W/m² |
| Temperatura (ºC) | Humedad (%) | Velocidad viento (km/h) | Precipitación (mm) | Radiación solar (W/m²) | ||||||||||||
|---|---|---|---|---|---|---|---|---|---|---|---|---|---|---|---|---|
| Hora UTC | Aire | Humedad | Vel. | Dir. | Vel. Max | Dir. | Intent. máx 5 min. | Rad. Sol. | ||||||||
| 00:05 | 22.5 | 57.9 | 1.0 | NNE | 1.0 | N | 0.0 | 0.0 | ||||||||
| 00:10 | 22.1 | 59.6 | 1.8 | NE | 3.2 | NNE | 0.0 | 0.0 | ||||||||
| 00:15 | 22.4 | 58.6 | 1.8 | N | 2.8 | N | 0.0 | 0.0 | ||||||||
| 00:20 | 22.3 | 58.6 | 1.4 | NNE | 2.8 | ENE | 0.0 | 0.0 | ||||||||
| 00:25 | 22.2 | 59.2 | 1.9 | NE | 3.5 | NE | 0.0 | 0.0 | ||||||||
| 00:30 | 22.2 | 59.5 | 2.4 | NE | 4.6 | ENE | 0.0 | 0.0 | ||||||||
| 00:35 | 21.9 | 60.9 | 1.7 | NE | 3.2 | ENE | 0.0 | 0.0 | ||||||||
| 00:40 | 21.8 | 60.9 | 2.2 | NE | 4.6 | ENE | 0.0 | 0.0 | ||||||||
| 00:45 | 22.0 | 60.6 | 1.5 | NNE | 3.2 | NNE | 0.0 | 0.0 | ||||||||
| 00:50 | 21.8 | 61.2 | 1.4 | NE | 2.8 | NE | 0.0 | 0.0 | ||||||||
| 00:55 | 21.8 | 61.2 | 1.5 | NNE | 3.2 | NE | 0.0 | 0.0 | ||||||||
| 01:00 | 21.9 | 60.6 | 1.7 | NNE | 4.2 | NE | 0.0 | 0.0 | ||||||||
| 01:05 | 21.9 | 60.9 | 1.4 | NNE | 3.2 | NE | 0.0 | 0.0 | ||||||||
| 01:10 | 21.3 | 63.0 | 2.5 | ENE | 7.1 | E | 0.0 | 0.0 | ||||||||
| 01:15 | 21.3 | 63.2 | 2.0 | NE | 3.9 | ENE | 0.0 | 0.0 | ||||||||
| 01:20 | 21.2 | 63.2 | 1.8 | NE | 3.9 | NE | 0.0 | 0.0 | ||||||||
| 01:25 | 21.4 | 62.0 | 2.1 | NE | 4.2 | NE | 0.0 | 0.0 | ||||||||
| 01:30 | 21.4 | 62.3 | 1.5 | NE | 3.9 | ENE | 0.0 | 0.0 | ||||||||
| 01:35 | 21.3 | 62.7 | 3.5 | ENE | 6.7 | ENE | 0.0 | 0.0 | ||||||||
| 01:40 | 21.2 | 63.1 | 2.1 | NE | 3.2 | N | 0.0 | 0.0 | ||||||||
| 01:45 | 21.1 | 63.4 | 3.7 | ENE | 6.4 | ENE | 0.0 | 0.0 | ||||||||
| 01:50 | 21.2 | 63.0 | 2.5 | NNE | 4.2 | ENE | 0.0 | 0.0 | ||||||||
| 01:55 | 21.1 | 63.8 | 0.7 | NE | 2.5 | ENE | 0.0 | 0.0 | ||||||||
| 02:00 | 21.1 | 63.6 | 1.6 | NE | 3.2 | ENE | 0.0 | 0.0 | ||||||||
| 02:05 | 21.0 | 63.6 | 1.1 | NNE | 2.1 | NNE | 0.0 | 0.0 | ||||||||
| 02:10 | 21.1 | 63.0 | 2.2 | NE | 4.6 | ENE | 0.0 | 0.0 | ||||||||
| 02:15 | 21.0 | 63.8 | 2.9 | NE | 4.9 | ENE | 0.0 | 0.0 | ||||||||
| 02:20 | 21.0 | 63.7 | 2.3 | NE | 5.3 | ENE | 0.0 | 0.0 | ||||||||
| 02:25 | 21.0 | 63.9 | 2.7 | NE | 4.9 | ENE | 0.0 | 0.0 | ||||||||
| 02:30 | 21.0 | 64.1 | 1.3 | NNE | 3.2 | N | 0.0 | 0.0 | ||||||||
| 02:35 | 20.9 | 64.1 | 1.0 | NNE | 2.8 | E | 0.0 | 0.0 | ||||||||
| 02:40 | 21.1 | 63.2 | 2.2 | NE | 3.5 | ENE | 0.0 | 0.0 | ||||||||
| 02:45 | 20.9 | 64.1 | 2.9 | NE | 4.2 | ENE | 0.0 | 0.0 | ||||||||
| 02:50 | 20.8 | 64.3 | 3.4 | ENE | 4.6 | ENE | 0.0 | 0.0 | ||||||||
| 02:55 | 21.0 | 63.9 | 2.4 | NE | 3.9 | NE | 0.0 | 0.0 | ||||||||
| 03:00 | 20.9 | 64.2 | 1.8 | NE | 3.9 | NE | 0.0 | 0.0 | ||||||||
| 03:05 | 20.9 | 64.5 | 1.9 | NE | 2.8 | NE | 0.0 | 0.0 | ||||||||
| 03:10 | 20.8 | 65.1 | 1.5 | NE | 2.8 | NE | 0.0 | 0.0 | ||||||||
| 03:15 | 20.8 | 65.1 | 1.4 | NE | 2.8 | ENE | 0.0 | 0.0 | ||||||||
| 03:20 | 20.8 | 65.1 | 2.6 | NE | 3.9 | ENE | 0.0 | 0.0 | ||||||||
| 03:25 | 20.8 | 65.7 | 1.8 | NNE | 3.5 | NNE | 0.0 | 0.0 | ||||||||
| 03:30 | 20.6 | 66.3 | 3.3 | ENE | 5.3 | ENE | 0.0 | 0.0 | ||||||||
| 03:35 | 20.5 | 67.0 | 1.8 | NE | 3.2 | NE | 0.0 | 0.0 | ||||||||
| 03:40 | 20.4 | 67.1 | 2.6 | NE | 4.2 | ENE | 0.0 | 0.0 | ||||||||
| 03:45 | 20.5 | 66.6 | 2.3 | NE | 3.9 | ENE | 0.0 | 0.0 | ||||||||
| 03:50 | 20.5 | 66.5 | 3.4 | ENE | 5.3 | ENE | 0.0 | 0.0 | ||||||||
| 03:55 | 20.6 | 66.0 | 3.1 | NE | 4.9 | ENE | 0.0 | 0.0 | ||||||||
| 04:00 | 20.5 | 66.2 | 2.1 | NE | 4.2 | ENE | 0.0 | 0.0 | ||||||||
| 04:05 | 20.5 | 66.1 | 1.9 | NE | 3.5 | NNE | 0.0 | 0.0 | ||||||||
| 04:10 | 20.5 | 66.6 | 0.9 | NNE | 2.1 | NE | 0.0 | 0.0 | ||||||||
| 04:15 | 20.5 | 66.9 | 1.1 | NNE | 2.5 | NE | 0.0 | 0.0 | ||||||||
| 04:20 | 20.6 | 66.4 | 3.0 | NE | 5.3 | ENE | 0.0 | 0.0 | ||||||||
| 04:25 | 20.4 | 66.8 | 1.8 | NE | 4.2 | ENE | 0.0 | 0.0 | ||||||||
| 04:30 | 20.2 | 67.5 | 2.6 | ENE | 5.3 | ENE | 0.0 | 0.0 | ||||||||
| 04:35 | 20.2 | 67.6 | 1.6 | NE | 3.2 | NNE | 0.0 | 0.0 | ||||||||
| 04:40 | 20.3 | 67.4 | 1.8 | NNE | 2.8 | ENE | 0.0 | 0.0 | ||||||||
| 04:45 | 20.2 | 67.5 | 1.2 | NNE | 2.8 | NE | 0.0 | 0.0 | ||||||||
| 04:50 | 20.2 | 67.9 | 1.9 | NE | 3.2 | ENE | 0.0 | 0.0 | ||||||||
| 04:55 | 20.1 | 67.6 | 3.5 | ENE | 6.0 | ENE | 0.0 | 0.0 | ||||||||
| 05:00 | 20.1 | 67.5 | 1.9 | NNE | 3.2 | NNE | 0.0 | 0.0 | ||||||||
| 05:05 | 20.0 | 67.7 | 3.3 | ENE | 4.6 | ENE | 0.0 | 0.0 | ||||||||
| 05:10 | 20.1 | 67.0 | 1.2 | NNE | 2.8 | ENE | 0.0 | 0.0 | ||||||||
| 05:15 | 20.0 | 67.8 | 1.7 | NE | 3.9 | ENE | 0.0 | 0.1 | ||||||||
| 05:20 | 20.1 | 66.9 | 1.4 | NNE | 3.5 | ENE | 0.0 | 1.1 | ||||||||
| 05:25 | 20.2 | 67.1 | 1.7 | N | 2.8 | N | 0.0 | 2.6 | ||||||||
| 05:30 | 20.0 | 67.4 | 2.7 | ENE | 4.9 | ENE | 0.0 | 3.9 | ||||||||
| 05:35 | 19.9 | 67.5 | 2.0 | NE | 5.3 | NE | 0.0 | 8.1 | ||||||||
| 05:40 | 20.2 | 67.0 | 1.0 | NNE | 2.8 | NE | 0.0 | 12.9 | ||||||||
| 05:45 | 20.2 | 66.9 | 1.7 | NE | 2.8 | NE | 0.0 | 17.3 | ||||||||
| 05:50 | 20.2 | 67.0 | 1.7 | NE | 3.2 | ENE | 0.0 | 21.8 | ||||||||
| 05:55 | 20.1 | 67.8 | 1.8 | NE | 3.9 | ENE | 0.0 | 26.4 | ||||||||
| 06:00 | 20.0 | 68.6 | 1.3 | NE | 3.9 | ENE | 0.0 | 31.2 | ||||||||
| 06:05 | 20.2 | 67.7 | 4.2 | ENE | 6.0 | ENE | 0.0 | 36.4 | ||||||||
| 06:10 | 20.4 | 67.2 | 2.4 | NE | 5.3 | ENE | 0.0 | 41.2 | ||||||||
| 06:15 | 20.4 | 67.5 | 1.3 | NE | 2.8 | NNE | 0.0 | 45.8 | ||||||||
| 06:25 | 20.7 | 67.1 | 0.6 | NNE | 1.8 | NNE | 0.0 | 55.7 | ||||||||
| 06:30 | 20.9 | 66.3 | 1.8 | NE | 3.9 | ENE | 0.0 | 61.0 | ||||||||
| 06:35 | 21.0 | 66.7 | 2.2 | ENE | 6.4 | ENE | 0.0 | 108.0 | ||||||||
| 06:40 | 21.3 | 65.3 | 3.4 | ENE | 4.9 | ENE | 0.0 | 145.1 | ||||||||
| 06:45 | 22.1 | 63.1 | 0.8 | NE | 3.2 | NE | 0.0 | 159.8 | ||||||||
| 06:50 | 22.9 | 59.5 | 2.2 | ENE | 4.9 | ENE | 0.0 | 173.9 | ||||||||
| 06:55 | 22.9 | 59.3 | 3.6 | ENE | 5.3 | ENE | 0.0 | 192.0 | ||||||||
| 07:00 | 23.2 | 59.1 | 0.8 | ENE | 3.5 | NE | 0.0 | 201.6 | ||||||||
| 07:05 | 24.0 | 56.9 | 2.1 | E | 4.2 | ESE | 0.0 | 225.2 | ||||||||
| 07:10 | 23.9 | 57.3 | 2.8 | E | 5.3 | ENE | 0.0 | 241.2 | ||||||||
| 07:15 | 24.3 | 56.9 | 1.2 | E | 3.9 | ENE | 0.0 | 259.5 | ||||||||
| 07:20 | 25.0 | 55.5 | 0.6 | S | 2.5 | S | 0.0 | 274.8 | ||||||||
| 07:25 | 25.2 | 54.6 | 1.5 | ESE | 2.8 | ESE | 0.0 | 290.1 | ||||||||
| 07:30 | 25.6 | 51.6 | 2.0 | E | 3.9 | E | 0.0 | 306.3 | ||||||||
| 07:35 | 25.8 | 52.7 | 1.2 | SSE | 3.2 | SSW | 0.0 | 321.9 | ||||||||
| 07:40 | 26.5 | 50.4 | 1.1 | E | 3.5 | ESE | 0.0 | 338.3 | ||||||||
| 07:45 | 26.6 | 49.7 | 2.3 | E | 4.6 | ESE | 0.0 | 353.5 | ||||||||
| 07:50 | 27.0 | 48.5 | 1.1 | E | 3.5 | ENE | 0.0 | 370.4 | ||||||||
| 07:55 | 27.6 | 48.3 | 1.6 | SSE | 3.2 | SSE | 0.0 | 386.5 | ||||||||
| 08:00 | 27.6 | 47.7 | 1.1 | SSE | 3.2 | SSE | 0.0 | 401.9 | ||||||||
| 08:05 | 27.7 | 46.7 | 1.9 | SSE | 4.9 | SSE | 0.0 | 418.3 | ||||||||
| 08:10 | 27.8 | 47.1 | 1.8 | SSE | 3.9 | SSE | 0.0 | 432.9 | ||||||||
| 08:15 | 28.7 | 45.0 | 1.7 | SE | 4.2 | SSE | 0.0 | 447.5 | ||||||||
| 08:20 | 29.4 | 43.0 | 0.9 | SSE | 3.5 | S | 0.0 | 463.2 | ||||||||
| 08:30 | 29.7 | 42.4 | 2.0 | SSW | 4.2 | SSE | 0.0 | 496.2 | ||||||||
| 08:35 | 29.9 | 41.5 | 2.3 | SSW | 6.0 | SSW | 0.0 | 512.9 | ||||||||
| 08:40 | 30.2 | 40.1 | 3.0 | SSW | 6.0 | SSW | 0.0 | 525.2 | ||||||||
| 08:45 | 30.7 | 38.6 | 3.2 | SSW | 7.8 | SSW | 0.0 | 538.1 | ||||||||
| 08:50 | 31.0 | 36.9 | 4.0 | SSW | 9.2 | SSW | 0.0 | 532.6 | ||||||||
| 08:55 | 31.0 | 36.6 | 4.1 | SSW | 8.5 | SSE | 0.0 | 499.4 | ||||||||
| 09:00 | 31.3 | 36.2 | 3.4 | SW | 8.5 | S | 0.0 | 562.2 | ||||||||
| 09:05 | 32.2 | 32.8 | 3.1 | W | 6.4 | WNW | 0.0 | 575.2 | ||||||||
| 09:10 | 32.7 | 30.8 | 2.9 | WSW | 7.1 | SSW | 0.0 | 588.8 | ||||||||
| 09:15 | 33.3 | 29.0 | 3.7 | W | 11.3 | W | 0.0 | 600.8 | ||||||||
| 09:20 | 33.4 | 29.2 | 4.0 | SW | 9.5 | SSW | 0.0 | 612.1 | ||||||||
| 09:25 | 34.0 | 27.4 | 3.3 | SW | 9.2 | SW | 0.0 | 624.3 | ||||||||
| 09:30 | 34.2 | 25.2 | 4.2 | SSW | 10.6 | SW | 0.0 | 634.2 | ||||||||
| 09:35 | 34.5 | 24.4 | 3.9 | S | 10.2 | SSE | 0.0 | 644.9 | ||||||||
| 09:40 | 34.5 | 24.8 | 4.6 | SE | 12.0 | SE | 0.0 | 653.8 | ||||||||
| 09:45 | 34.2 | 25.3 | 2.8 | SSW | 9.9 | SW | 0.0 | 661.6 | ||||||||
| 09:50 | 34.5 | 25.6 | 3.8 | SW | 9.5 | WSW | 0.0 | 672.3 | ||||||||
| 09:55 | 34.7 | 25.6 | 4.5 | S | 10.2 | ENE | 0.0 | 681.6 | ||||||||
| 10:00 | 34.6 | 25.7 | 4.0 | ESE | 10.2 | ENE | 0.0 | 689.6 | ||||||||
| 10:05 | 34.5 | 26.3 | 3.9 | SSW | 11.6 | S | 0.0 | 697.1 | ||||||||
| 10:10 | 34.5 | 26.3 | 4.5 | E | 13.1 | E | 0.0 | 705.1 | ||||||||
| 10:15 | 34.6 | 26.6 | 3.9 | SE | 14.1 | NW | 0.0 | 713.5 | ||||||||
| 10:20 | 35.2 | 25.4 | 4.5 | WSW | 11.6 | SW | 0.0 | 720.0 | ||||||||
| 10:25 | 34.8 | 25.6 | 4.6 | SW | 15.2 | SW | 0.0 | 726.3 | ||||||||
| 10:30 | 34.3 | 26.3 | 5.9 | SW | 17.6 | S | 0.0 | 731.9 | ||||||||
| 10:35 | 34.3 | 26.3 | 4.3 | WSW | 14.1 | S | 0.0 | 739.9 | ||||||||
| 10:40 | 34.9 | 25.4 | 4.1 | SW | 13.8 | SW | 0.0 | 747.3 | ||||||||
| 10:45 | 35.0 | 25.2 | 6.1 | WSW | 17.3 | WSW | 0.0 | 751.4 | ||||||||
| 10:50 | 34.3 | 25.9 | 7.1 | E | 15.5 | W | 0.0 | 755.7 | ||||||||
| 10:55 | 34.6 | 25.9 | 4.9 | SW | 10.6 | W | 0.0 | 761.2 | ||||||||
| 11:00 | 34.5 | 25.9 | 4.2 | WSW | 12.7 | SSW | 0.0 | 764.0 | ||||||||
| 11:05 | 35.0 | 25.3 | 3.5 | SW | 17.3 | SW | 0.0 | 767.5 | ||||||||
| 11:10 | 35.5 | 24.7 | 3.3 | SW | 9.2 | SSW | 0.0 | 770.4 | ||||||||
| 11:15 | 35.5 | 25.1 | 5.0 | S | 13.4 | WSW | 0.0 | 771.3 | ||||||||
| 11:20 | 35.0 | 25.8 | 4.1 | SSE | 13.1 | WSW | 0.0 | 772.6 | ||||||||
| 11:25 | 34.6 | 26.2 | 5.2 | E | 14.1 | SE | 0.0 | 775.6 | ||||||||
| 11:30 | 34.8 | 26.1 | 3.0 | ESE | 10.9 | NE | 0.0 | 779.3 | ||||||||
| 11:35 | 34.4 | 26.1 | 5.2 | SE | 15.2 | E | 0.0 | 779.5 | ||||||||
| 11:40 | 34.6 | 25.8 | 3.6 | SW | 12.7 | SSW | 0.0 | 782.3 | ||||||||
| 11:45 | 35.3 | 25.0 | 4.6 | W | 10.2 | SSW | 0.0 | 782.9 | ||||||||
| 11:50 | 35.3 | 24.9 | 5.2 | WSW | 13.4 | SSW | 0.0 | 782.7 | ||||||||
| 11:55 | 35.0 | 25.5 | 3.7 | WSW | 9.9 | WNW | 0.0 | 783.0 | ||||||||
| 12:00 | 35.2 | 25.3 | 4.6 | SW | 12.0 | SW | 0.0 | 784.6 | ||||||||
| 12:05 | 35.3 | 25.0 | 4.0 | SW | 12.4 | SW | 0.0 | 782.2 | ||||||||
| 12:10 | 34.8 | 25.7 | 4.9 | SSW | 15.2 | SSE | 0.0 | 779.0 | ||||||||
| 12:15 | 34.6 | 25.7 | 3.2 | NNE | 10.9 | NNE | 0.0 | 777.3 | ||||||||
| 12:20 | 34.7 | 25.7 | 2.9 | ENE | 9.2 | N | 0.0 | 776.5 | ||||||||
| 12:25 | 35.3 | 24.8 | 4.7 | SW | 13.8 | E | 0.0 | 774.6 | ||||||||
| 12:30 | 34.5 | 25.9 | 4.4 | ESE | 10.2 | E | 0.0 | 773.2 | ||||||||
| 12:35 | 35.3 | 24.9 | 3.9 | SW | 12.0 | SSW | 0.0 | 770.1 | ||||||||
| 12:40 | 34.4 | 26.0 | 5.4 | W | 14.1 | NNE | 0.0 | 765.7 | ||||||||
| 12:45 | 34.8 | 25.8 | 3.5 | SSW | 13.8 | SSW | 0.0 | 762.6 | ||||||||
| 12:50 | 35.2 | 25.3 | 3.8 | WSW | 12.4 | WSW | 0.0 | 756.9 | ||||||||
| 12:55 | 34.8 | 25.8 | 6.0 | WSW | 11.6 | SW | 0.0 | 752.4 | ||||||||
| 13:00 | 34.9 | 25.6 | 3.9 | WSW | 16.9 | WSW | 0.0 | 746.2 | ||||||||
| 13:05 | 34.4 | 26.4 | 3.8 | W | 12.7 | NW | 0.0 | 740.0 | ||||||||
| 13:10 | 34.3 | 26.7 | 4.5 | W | 13.1 | SSW | 0.0 | 736.7 | ||||||||
| 13:15 | 34.3 | 26.7 | 5.5 | SW | 13.8 | WSW | 0.0 | 733.2 | ||||||||
| 13:20 | 34.1 | 27.0 | 4.1 | WNW | 9.2 | NW | 0.0 | 724.6 | ||||||||
| 13:25 | 34.9 | 26.1 | 4.2 | S | 11.3 | S | 0.0 | 718.5 | ||||||||
| 13:30 | 35.0 | 26.2 | 4.5 | SE | 10.6 | ENE | 0.0 | 708.8 | ||||||||
| Máxima | 35.5 | 68.6 | 7.1 | E | 17.6 | S | 0.0 | 784.6 | ||||||||
| Mínima | 19.9 | 24.4 | ||||||||||||||
| Total | 0.0 | |||||||||||||||